Santo Domingo, Venezuela

1:25 PM VET on October 25, 2014 (GMT -0430)
Mayor Buenaventura Vivas Airport | Change Station
CLOSE
Current Station
Airport
Location: Santo Domingo,
Elevation: 1083 ft
Nearby Weather Stations

Elev 1083 ft 7.56 °N, 72.03 °W | Updated 3 hours ago

Mostly Cloudy
Mostly Cloudy
77 °F
Feels Like 77 °F
N
0
Wind Variable Wind from North

Today
High -- | Low -- °F
--% Chance of Precip.
Yesterday
High -- | Low -- °F
Precip. -- in
6:05 AM 5:58 PM
Waxing Crescent, 4% visible
Pressure 30.01 in
Visibility 6.2 miles
Clouds Mostly Cloudy 2000 ft
Dew Point 73 °F
Humidity 89%
Rainfall 0.00 in
Snow Depth Not available.
UV 5 out of 12
Pollen Not available.
Air Quality Not available.
Flu Activity Not available.
METAR SVSO 251400Z 00000KT 9999 BKN020 25/23 Q1016

More Conditions Fewer Conditions

Pressure 30.01 in
Visibility 6.2 miles
Clouds Mostly Cloudy 2000 ft
Dew Point 73 °F
Humidity 89%
Rainfall 0.00 in
Snow Depth Not available.
UV 5 out of 12
Pollen Not available.
Air Quality Not available.
Flu Activity Not available.
METAR SVSO 251400Z 00000KT 9999 BKN020 25/23 Q1016

More Conditions Fewer Conditions

10-Day Weather Forecast

Almanac

Astronomy

Oct. 25, 2014 Rise Set
Actual Time 6:05 AM VET 5:58 PM VET
Civil Twilight 5:43 AM VET 6:20 PM VET
Nautical Twilight 5:19 AM VET 6:44 PM VET
Astronomical Twilight 4:54 AM VET 7:09 PM VET
Moon 7:28 AM VET 7:35 PM VET
Length of Visible Light 12h 36m
Length of Day
11h 53m
Tomorrow will be 0m 21s shorter.
Waxing Crescent, 4% of the Moon is Illuminated
Today
Waxing Crescent
Oct 30
First Quarter
Nov 6
Full
Nov 14
Last Quarter
Nov 22
New

Today's Extremes

Country Highs Country Lows

Community

WunderPhotos

Upload Photos

1,764,919 photos uploaded!

Nearby

Snow Depth

Not available.

Earthquake Activity

City Distance Mag. Time & Date
No recent earthquake activity has been reported nearby.
Minimum magnitude displayed is 2.5.

Coastal Water Temperatures

Place Temperature
No Stations Reporting

Nearby Weather Stations